Time;durP1;ratioP1;P1;durP2;ratioP2;P2;SDS_P1;SDS_P2;PMS_P1;PMS_P2;Temp;Humidity;BMP_temperature;BMP_pressure;BME280_temperature;BME280_humidity;BME280_pressure;Samples;Min_cycle;Max_cycle;Signal;HPM_P1;HPM_P2
2022/10/10 00:01:38;;;;;;;;;;;12.30;52.50;;;;;;4977429;28;19972;-89
2022/10/10 00:04:03;;;;;;;;;;;12.30;52.60;;;;;;4973619;28;19914;-86
2022/10/10 00:06:29;;;;;;;;;;;12.30;52.50;;;;;;4961997;28;19918;-86
2022/10/10 00:08:54;;;;;;;;;;;12.30;52.40;;;;;;4961281;28;20361;-88
2022/10/10 00:11:21;;;;;;;;;;;12.20;52.50;;;;;;4961685;28;19977;-89
2022/10/10 00:13:47;;;;;;;;;;;12.20;52.40;;;;;;4961048;28;19965;-88
2022/10/10 00:16:13;;;;;;;;;;;12.10;52.30;;;;;;4987730;28;20004;-88
2022/10/10 00:18:39;;;;;;;;;;;12.10;52.30;;;;;;4980264;28;19918;-89
2022/10/10 00:21:04;;;;;;;;;;;12.10;52.50;;;;;;4998954;28;19925;-90
2022/10/10 00:23:30;;;;;;;;;;;12.10;53.30;;;;;;4981476;28;19910;-87
2022/10/10 00:25:56;;;;;;;;;;;12.10;53.60;;;;;;4998817;28;19959;-88
2022/10/10 00:28:21;;;;;;;;;;;12.20;54.10;;;;;;4985297;28;19914;-86
2022/10/10 00:30:47;;;;;;;;;;;12.30;54.60;;;;;;4998893;28;20009;-85
2022/10/10 00:33:12;;;;;;;;;;;12.50;54.60;;;;;;4998350;28;20024;-87
2022/10/10 00:35:38;;;;;;;;;;;12.60;54.60;;;;;;4991575;28;20332;-89
2022/10/10 00:38:04;;;;;;;;;;;12.70;54.80;;;;;;4963308;28;19914;-88
2022/10/10 00:40:30;;;;;;;;;;;12.80;54.70;;;;;;4990895;28;19926;-88
2022/10/10 00:42:55;;;;;;;;;;;12.90;54.60;;;;;;4969768;28;20004;-88
2022/10/10 00:45:24;;;;;;;;;;;13.00;54.60;;;;;;4991670;28;20285;-89
2022/10/10 00:47:51;;;;;;;;;;;13.10;54.30;;;;;;4967432;28;20046;-89
2022/10/10 00:50:18;;;;;;;;;;;13.20;54.20;;;;;;4961179;28;19922;-88
2022/10/10 00:52:43;;;;;;;;;;;13.30;54.20;;;;;;4963126;28;19926;-89
2022/10/10 00:55:10;;;;;;;;;;;13.30;54.30;;;;;;4973234;28;19910;-90
2022/10/10 00:57:35;;;;;;;;;;;13.50;54.10;;;;;;4989111;28;19925;-86
2022/10/10 01:00:02;;;;;;;;;;;13.50;54.10;;;;;;4994455;28;19910;-86
2022/10/10 01:02:27;;;;;;;;;;;13.70;54.00;;;;;;4977285;28;20045;-87
2022/10/10 01:04:53;;;;;;;;;;;13.80;53.80;;;;;;4971507;28;19969;-87
2022/10/10 01:07:24;;;;;;;;;;;13.80;53.70;;;;;;4966477;28;19917;-90
2022/10/10 01:09:51;;;;;;;;;;;13.90;53.60;;;;;;4973331;28;20284;-89
2022/10/10 01:12:22;;;;;;;;;;;14.00;53.30;;;;;;4978991;28;20401;-85
2022/10/10 01:14:53;;;;;;;;;;;14.10;53.20;;;;;;4973383;28;19929;-88
2022/10/10 01:17:40;;;;;;;;;;;14.20;53.00;;;;;;4990417;28;19917;-86
2022/10/10 01:20:25;;;;;;;;;;;14.20;52.70;;;;;;4983124;28;20262;-90
2022/10/10 01:23:09;;;;;;;;;;;14.30;52.50;;;;;;4992475;28;19920;-89
2022/10/10 01:25:34;;;;;;;;;;;14.30;52.40;;;;;;4987391;28;19918;-89
2022/10/10 01:28:01;;;;;;;;;;;14.30;52.40;;;;;;4962224;28;19922;-85
2022/10/10 01:30:28;;;;;;;;;;;14.30;52.30;;;;;;4990211;28;19952;-87
2022/10/10 01:33:13;;;;;;;;;;;14.30;52.20;;;;;;4963975;28;19926;-86
2022/10/10 01:35:59;;;;;;;;;;;14.30;52.10;;;;;;4992221;28;19918;-86
2022/10/10 01:38:30;;;;;;;;;;;14.40;52.20;;;;;;4995906;28;19910;-89
2022/10/10 01:41:09;;;;;;;;;;;14.40;52.10;;;;;;4971786;28;19925;-89
2022/10/10 01:43:35;;;;;;;;;;;14.40;51.90;;;;;;4959173;28;19910;-90
2022/10/10 01:46:11;;;;;;;;;;;14.40;51.90;;;;;;4974479;28;20021;-89
2022/10/10 01:48:37;;;;;;;;;;;14.40;51.70;;;;;;4976790;28;20073;-88
2022/10/10 01:51:02;;;;;;;;;;;14.50;51.70;;;;;;4994643;28;19949;-88
2022/10/10 01:53:37;;;;;;;;;;;14.50;51.60;;;;;;4995780;28;19941;-88
2022/10/10 01:56:12;;;;;;;;;;;14.50;51.50;;;;;;4997018;28;20069;-87
2022/10/10 01:58:37;;;;;;;;;;;14.40;51.20;;;;;;4978171;28;19921;-89
2022/10/10 02:01:17;;;;;;;;;;;14.30;50.60;;;;;;4977285;28;19922;-85
2022/10/10 02:03:44;;;;;;;;;;;14.10;50.30;;;;;;4976647;28;19910;-89
2022/10/10 02:06:20;;;;;;;;;;;13.80;50.40;;;;;;4978169;28;19932;-86
2022/10/10 02:08:49;;;;;;;;;;;13.60;50.40;;;;;;4995003;28;20376;-88
2022/10/10 02:11:15;;;;;;;;;;;13.40;50.40;;;;;;4977780;28;19965;-88
2022/10/10 02:13:51;;;;;;;;;;;13.30;50.50;;;;;;4976821;28;20384;-89
2022/10/10 02:16:25;;;;;;;;;;;13.10;50.70;;;;;;4975408;28;19960;-88
2022/10/10 02:18:52;;;;;;;;;;;12.90;50.90;;;;;;4993530;28;19910;-86
2022/10/10 02:21:18;;;;;;;;;;;12.70;51.00;;;;;;4993960;28;19976;-88
2022/10/10 02:23:45;;;;;;;;;;;12.60;51.20;;;;;;4976805;28;19909;-88
2022/10/10 02:26:12;;;;;;;;;;;12.50;51.50;;;;;;4975739;28;19924;-90
2022/10/10 02:28:54;;;;;;;;;;;12.40;51.70;;;;;;4977251;28;20275;-89
2022/10/10 02:31:23;;;;;;;;;;;12.40;51.90;;;;;;4994225;28;20356;-90
2022/10/10 02:33:52;;;;;;;;;;;12.30;52.20;;;;;;4977793;28;19948;-88
2022/10/10 02:36:19;;;;;;;;;;;12.20;52.30;;;;;;4975877;28;19913;-88
2022/10/10 02:38:44;;;;;;;;;;;12.20;52.30;;;;;;4976905;28;19922;-87
2022/10/10 02:41:12;;;;;;;;;;;12.10;52.40;;;;;;4969679;28;19914;-87
2022/10/10 02:43:38;;;;;;;;;;;12.00;52.50;;;;;;4957175;28;20369;-89
2022/10/10 02:46:04;;;;;;;;;;;12.00;52.70;;;;;;4975293;28;19918;-87
2022/10/10 02:48:30;;;;;;;;;;;12.00;52.70;;;;;;4975344;28;20301;-88
2022/10/10 02:50:56;;;;;;;;;;;12.00;52.70;;;;;;4977066;28;19921;-88
2022/10/10 02:53:21;;;;;;;;;;;11.90;52.80;;;;;;4993261;28;19926;-87
2022/10/10 02:55:47;;;;;;;;;;;11.90;53.00;;;;;;4978052;28;19918;-85
2022/10/10 02:58:13;;;;;;;;;;;11.80;53.20;;;;;;4980109;28;19918;-87
2022/10/10 03:00:38;;;;;;;;;;;11.80;53.20;;;;;;4974313;28;19910;-88
2022/10/10 03:03:04;;;;;;;;;;;11.80;53.30;;;;;;4975120;28;19925;-88
2022/10/10 03:05:29;;;;;;;;;;;11.80;53.50;;;;;;4992226;28;19922;-87
2022/10/10 03:07:55;;;;;;;;;;;11.80;53.50;;;;;;4993549;28;19922;-89
2022/10/10 03:10:20;;;;;;;;;;;11.80;53.60;;;;;;4974696;28;19920;-88
2022/10/10 03:12:46;;;;;;;;;;;11.70;53.60;;;;;;4992913;28;19922;-88
2022/10/10 03:15:11;;;;;;;;;;;11.70;53.70;;;;;;4993520;28;19916;-85
2022/10/10 03:17:37;;;;;;;;;;;11.70;53.60;;;;;;4974658;28;19918;-89
2022/10/10 03:20:03;;;;;;;;;;;11.70;53.70;;;;;;4981285;28;19910;-90
2022/10/10 03:22:28;;;;;;;;;;;11.70;53.60;;;;;;4992498;28;19984;-87
2022/10/10 03:24:54;;;;;;;;;;;11.70;53.60;;;;;;4961781;28;19915;-88
2022/10/10 03:27:19;;;;;;;;;;;11.60;53.80;;;;;;4987393;28;19921;-85
2022/10/10 03:29:45;;;;;;;;;;;11.60;54.10;;;;;;4974523;28;19977;-90
2022/10/10 03:32:10;;;;;;;;;;;11.60;54.40;;;;;;4958157;28;19937;-88
2022/10/10 03:34:36;;;;;;;;;;;11.70;54.90;;;;;;4972309;28;19918;-89
2022/10/10 03:37:01;;;;;;;;;;;11.70;54.90;;;;;;4990736;28;19914;-86
2022/10/10 03:39:27;;;;;;;;;;;11.70;54.90;;;;;;4997853;28;19972;-87
2022/10/10 03:41:52;;;;;;;;;;;11.70;54.90;;;;;;4973876;28;19937;-85
2022/10/10 03:44:18;;;;;;;;;;;11.70;54.90;;;;;;4974570;28;19945;-89
2022/10/10 03:46:43;;;;;;;;;;;11.80;54.80;;;;;;4963841;28;19949;-88
2022/10/10 03:49:09;;;;;;;;;;;11.70;54.50;;;;;;4968303;28;19922;-88
2022/10/10 03:51:34;;;;;;;;;;;11.70;54.40;;;;;;4983922;28;19929;-89
2022/10/10 03:54:00;;;;;;;;;;;11.60;54.30;;;;;;4994025;28;19937;-88
2022/10/10 03:56:26;;;;;;;;;;;11.60;54.40;;;;;;4996692;28;19918;-89
2022/10/10 03:58:51;;;;;;;;;;;11.60;54.80;;;;;;4995968;28;20418;-88
2022/10/10 04:01:17;;;;;;;;;;;11.60;54.90;;;;;;5012690;28;19954;-88
2022/10/10 04:03:42;;;;;;;;;;;11.50;54.90;;;;;;5013808;28;19964;-89
2022/10/10 04:06:08;;;;;;;;;;;11.60;55.00;;;;;;5011975;28;19915;-88
2022/10/10 04:08:33;;;;;;;;;;;11.60;55.10;;;;;;4992500;28;20439;-85
2022/10/10 04:10:59;;;;;;;;;;;11.50;55.30;;;;;;4994115;28;19917;-85
2022/10/10 04:13:26;;;;;;;;;;;11.60;55.50;;;;;;4974024;28;19922;-89
2022/10/10 04:15:52;;;;;;;;;;;11.60;55.70;;;;;;4979781;28;19913;-88
2022/10/10 04:18:21;;;;;;;;;;;11.60;55.70;;;;;;5000944;28;19918;-89
2022/10/10 04:20:46;;;;;;;;;;;11.60;55.40;;;;;;4974506;28;20372;-90
2022/10/10 04:23:12;;;;;;;;;;;11.60;55.20;;;;;;4992057;28;19922;-84
2022/10/10 04:25:38;;;;;;;;;;;11.60;55.10;;;;;;4979241;28;19914;-90
2022/10/10 04:28:04;;;;;;;;;;;11.60;55.00;;;;;;4980134;28;19914;-91
2022/10/10 04:30:31;;;;;;;;;;;11.60;55.10;;;;;;4997088;28;19914;-90
2022/10/10 04:32:57;;;;;;;;;;;11.60;55.40;;;;;;4974021;28;19930;-92
2022/10/10 04:35:23;;;;;;;;;;;11.60;55.40;;;;;;4991019;28;19921;-89
2022/10/10 04:37:48;;;;;;;;;;;11.60;55.30;;;;;;4991050;28;19918;-90
2022/10/10 04:40:14;;;;;;;;;;;11.50;55.20;;;;;;4991166;28;19922;-86
2022/10/10 04:42:40;;;;;;;;;;;11.50;55.20;;;;;;4974971;28;20407;-91
2022/10/10 04:45:06;;;;;;;;;;;11.50;55.20;;;;;;4992143;28;19917;-89
2022/10/10 04:47:32;;;;;;;;;;;11.40;55.00;;;;;;4990867;28;19918;-90
2022/10/10 04:49:57;;;;;;;;;;;11.40;55.20;;;;;;4977180;28;20380;-86
2022/10/10 04:52:23;;;;;;;;;;;11.40;55.20;;;;;;4966601;28;19922;-89
2022/10/10 04:54:49;;;;;;;;;;;11.40;55.10;;;;;;4974052;28;19997;-89
2022/10/10 04:57:15;;;;;;;;;;;11.40;54.90;;;;;;5006052;28;20436;-86
2022/10/10 04:59:43;;;;;;;;;;;11.30;54.80;;;;;;4980584;28;19944;-87
2022/10/10 05:02:09;;;;;;;;;;;11.30;54.80;;;;;;4978603;28;20001;-88
2022/10/10 05:04:35;;;;;;;;;;;11.20;54.70;;;;;;4984993;28;20344;-89
2022/10/10 05:07:01;;;;;;;;;;;11.30;54.70;;;;;;4985068;28;19956;-90
2022/10/10 05:09:26;;;;;;;;;;;11.20;55.00;;;;;;4989914;28;20415;-90
2022/10/10 05:11:52;;;;;;;;;;;11.20;55.20;;;;;;4970116;28;19968;-92
2022/10/10 05:14:18;;;;;;;;;;;11.20;55.10;;;;;;4995049;28;19954;-89
2022/10/10 05:16:44;;;;;;;;;;;11.20;55.10;;;;;;4976892;28;19925;-90
2022/10/10 05:19:17;;;;;;;;;;;11.10;55.00;;;;;;4984032;28;19918;-90
2022/10/10 05:21:43;;;;;;;;;;;11.10;55.30;;;;;;4992897;28;19914;-91
2022/10/10 05:24:08;;;;;;;;;;;11.10;55.30;;;;;;5004038;28;20438;-89
2022/10/10 05:26:37;;;;;;;;;;;11.10;55.40;;;;;;5007692;28;19914;-91
2022/10/10 05:29:02;;;;;;;;;;;11.10;55.40;;;;;;4988031;28;20360;-90
2022/10/10 05:31:31;;;;;;;;;;;11.10;55.30;;;;;;5014706;28;19920;-90
2022/10/10 05:33:56;;;;;;;;;;;11.10;55.20;;;;;;4994632;28;19926;-90
2022/10/10 05:36:32;;;;;;;;;;;11.00;55.10;;;;;;4992371;28;19922;-93
2022/10/10 05:39:00;;;;;;;;;;;11.00;55.10;;;;;;4993611;28;19914;-89
2022/10/10 05:41:26;;;;;;;;;;;11.00;55.00;;;;;;5007525;28;19913;-90
2022/10/10 05:43:52;;;;;;;;;;;11.00;54.70;;;;;;5018802;28;19918;-90
2022/10/10 05:46:19;;;;;;;;;;;10.90;54.60;;;;;;4992719;28;20307;-91
2022/10/10 05:48:44;;;;;;;;;;;10.80;54.60;;;;;;4980224;28;19913;-89
2022/10/10 05:51:11;;;;;;;;;;;10.80;54.60;;;;;;4974240;28;19935;-88
2022/10/10 05:53:37;;;;;;;;;;;10.80;54.70;;;;;;4990636;28;19929;-86
2022/10/10 05:56:06;;;;;;;;;;;10.80;54.70;;;;;;4985063;28;19932;-88
2022/10/10 05:58:31;;;;;;;;;;;10.80;55.20;;;;;;4993131;28;19920;-88
2022/10/10 06:01:01;;;;;;;;;;;10.80;55.50;;;;;;4980218;28;19917;-89
2022/10/10 06:03:26;;;;;;;;;;;10.90;55.90;;;;;;5003472;28;20016;-85
2022/10/10 06:05:53;;;;;;;;;;;11.10;56.70;;;;;;5011185;28;20004;-88
2022/10/10 06:08:19;;;;;;;;;;;11.50;57.30;;;;;;4994384;28;19944;-87
2022/10/10 06:10:45;;;;;;;;;;;11.80;57.90;;;;;;4994032;28;20001;-90
2022/10/10 06:13:11;;;;;;;;;;;12.10;58.40;;;;;;4978226;28;20013;-85
2022/10/10 06:15:37;;;;;;;;;;;12.50;58.80;;;;;;4977966;28;19948;-90
2022/10/10 06:18:03;;;;;;;;;;;12.90;59.00;;;;;;4986839;28;19922;-87
2022/10/10 06:20:29;;;;;;;;;;;13.30;59.10;;;;;;5000418;28;19964;-84
2022/10/10 06:22:56;;;;;;;;;;;13.70;59.20;;;;;;4989491;28;19965;-90
2022/10/10 06:25:22;;;;;;;;;;;14.20;58.90;;;;;;4989562;28;19918;-88
2022/10/10 06:27:47;;;;;;;;;;;14.60;58.80;;;;;;4988754;28;19917;-91
2022/10/10 06:30:13;;;;;;;;;;;15.00;58.60;;;;;;4989631;28;21279;-89
2022/10/10 06:32:38;;;;;;;;;;;15.40;58.40;;;;;;4989618;28;19922;-86
2022/10/10 06:35:04;;;;;;;;;;;15.80;58.20;;;;;;4990750;28;20292;-88
2022/10/10 06:37:30;;;;;;;;;;;16.30;58.10;;;;;;4973640;28;19973;-89
2022/10/10 06:39:58;;;;;;;;;;;16.70;57.80;;;;;;4989425;28;19980;-87
2022/10/10 06:42:24;;;;;;;;;;;17.20;57.00;;;;;;4973852;28;20431;-87
2022/10/10 06:44:49;;;;;;;;;;;17.70;56.00;;;;;;4972219;28;20016;-86
2022/10/10 06:47:15;;;;;;;;;;;18.10;55.50;;;;;;4991888;28;20017;-87
2022/10/10 06:49:41;;;;;;;;;;;18.50;54.80;;;;;;4977449;28;19945;-88
2022/10/10 06:52:07;;;;;;;;;;;18.80;53.90;;;;;;4971453;28;20379;-88
2022/10/10 06:54:33;;;;;;;;;;;19.20;52.90;;;;;;4972369;28;20373;-87
2022/10/10 06:56:58;;;;;;;;;;;19.60;53.10;;;;;;4972458;28;20405;-88
2022/10/10 06:59:24;;;;;;;;;;;20.00;52.50;;;;;;4989023;28;19922;-87
2022/10/10 07:01:49;;;;;;;;;;;20.40;51.90;;;;;;4987418;28;19922;-87
2022/10/10 07:04:15;;;;;;;;;;;20.90;51.00;;;;;;4989844;28;19926;-86
2022/10/10 07:06:40;;;;;;;;;;;21.30;50.10;;;;;;4971924;28;19924;-90
2022/10/10 07:09:09;;;;;;;;;;;21.70;48.70;;;;;;4970604;28;19929;-88
2022/10/10 07:11:37;;;;;;;;;;;22.00;47.80;;;;;;4988243;28;20158;-86
2022/10/10 07:14:02;;;;;;;;;;;22.30;45.50;;;;;;4971737;28;20379;-85
2022/10/10 07:16:32;;;;;;;;;;;22.60;44.70;;;;;;4970977;28;20669;-89
2022/10/10 07:18:58;;;;;;;;;;;22.90;43.90;;;;;;4972691;28;19922;-89
2022/10/10 07:21:24;;;;;;;;;;;23.20;43.00;;;;;;4970360;28;19925;-88
2022/10/10 07:23:49;;;;;;;;;;;23.50;42.50;;;;;;4988857;28;19918;-88
2022/10/10 07:26:19;;;;;;;;;;;23.80;42.00;;;;;;4988738;28;20013;-85
2022/10/10 07:28:45;;;;;;;;;;;24.20;41.10;;;;;;4989639;28;20335;-87
2022/10/10 07:31:11;;;;;;;;;;;24.50;40.20;;;;;;4971042;28;19918;-89
2022/10/10 07:33:41;;;;;;;;;;;24.70;38.80;;;;;;4988958;28;19968;-89
2022/10/10 07:36:06;;;;;;;;;;;24.90;37.70;;;;;;4971277;28;19941;-88
2022/10/10 07:38:32;;;;;;;;;;;25.00;37.90;;;;;;4973929;28;20388;-86
2022/10/10 07:40:58;;;;;;;;;;;25.30;37.10;;;;;;4988748;28;19917;-85
2022/10/10 07:43:23;;;;;;;;;;;25.60;36.50;;;;;;4989091;28;19918;-87
2022/10/10 07:45:49;;;;;;;;;;;25.90;35.70;;;;;;4988466;28;20283;-87
2022/10/10 07:48:15;;;;;;;;;;;26.10;35.30;;;;;;4990409;28;20261;-86
2022/10/10 07:50:41;;;;;;;;;;;26.20;35.00;;;;;;4973117;28;20277;-88
2022/10/10 07:53:07;;;;;;;;;;;26.30;34.20;;;;;;4989745;28;19956;-87
2022/10/10 07:55:33;;;;;;;;;;;26.50;34.90;;;;;;4988916;28;20008;-87
2022/10/10 07:58:02;;;;;;;;;;;26.90;34.90;;;;;;4978600;28;19922;-87
2022/10/10 08:00:28;;;;;;;;;;;27.30;34.70;;;;;;4992290;28;19930;-87
2022/10/10 08:02:54;;;;;;;;;;;27.70;33.30;;;;;;4965035;28;19922;-88
2022/10/10 08:05:19;;;;;;;;;;;28.00;32.80;;;;;;4958693;28;20373;-88
2022/10/10 08:07:45;;;;;;;;;;;28.20;32.00;;;;;;4960901;28;20302;-88
2022/10/10 08:10:11;;;;;;;;;;;28.30;31.80;;;;;;4984270;28;20349;-87
2022/10/10 08:12:37;;;;;;;;;;;28.50;31.40;;;;;;4987606;28;19937;-85
2022/10/10 08:15:03;;;;;;;;;;;28.70;31.50;;;;;;4966295;28;20280;-88
2022/10/10 08:17:29;;;;;;;;;;;28.90;31.10;;;;;;4989972;28;20284;-87
2022/10/10 08:19:54;;;;;;;;;;;29.20;30.80;;;;;;4965827;28;19918;-88
2022/10/10 08:22:20;;;;;;;;;;;29.40;30.50;;;;;;4961843;28;19926;-86
2022/10/10 08:24:45;;;;;;;;;;;29.50;30.20;;;;;;4989687;28;20276;-87
2022/10/10 08:27:13;;;;;;;;;;;29.60;29.80;;;;;;4980346;28;20349;-85
2022/10/10 08:29:38;;;;;;;;;;;29.70;29.40;;;;;;4986105;28;19929;-88
2022/10/10 08:32:04;;;;;;;;;;;29.70;29.10;;;;;;4972372;28;19918;-87
2022/10/10 08:34:30;;;;;;;;;;;29.70;29.10;;;;;;4984528;28;20463;-86
2022/10/10 08:36:55;;;;;;;;;;;29.90;28.80;;;;;;4984485;28;19921;-89
2022/10/10 08:39:21;;;;;;;;;;;30.00;29.20;;;;;;4966780;28;19949;-88
2022/10/10 08:41:48;;;;;;;;;;;30.20;28.80;;;;;;4992595;28;19921;-87
2022/10/10 08:44:32;;;;;;;;;;;30.30;28.80;;;;;;4961714;28;19929;-85
2022/10/10 08:47:02;;;;;;;;;;;30.40;28.70;;;;;;4988483;28;19922;-88
2022/10/10 08:49:31;;;;;;;;;;;30.50;28.80;;;;;;4988079;28;20376;-87
2022/10/10 08:51:59;;;;;;;;;;;30.80;29.10;;;;;;4988324;28;20012;-87
2022/10/10 08:54:25;;;;;;;;;;;31.10;28.50;;;;;;4980025;28;19984;-88
2022/10/10 08:56:53;;;;;;;;;;;31.30;28.20;;;;;;4967118;28;20013;-88
2022/10/10 08:59:25;;;;;;;;;;;31.50;27.50;;;;;;4990065;28;19922;-89
2022/10/10 09:01:52;;;;;;;;;;;31.70;27.90;;;;;;4986622;28;19972;-88
2022/10/10 09:04:18;;;;;;;;;;;31.90;27.50;;;;;;4982066;28;19969;-87
2022/10/10 09:06:54;;;;;;;;;;;32.10;27.50;;;;;;4990591;28;20021;-86
2022/10/10 09:09:35;;;;;;;;;;;32.40;27.40;;;;;;4982118;28;19928;-88
2022/10/10 09:12:26;;;;;;;;;;;32.80;27.30;;;;;;4990336;28;19921;-87
2022/10/10 09:14:56;;;;;;;;;;;33.00;27.00;;;;;;4986839;28;19944;-89
2022/10/10 09:17:31;;;;;;;;;;;33.10;26.20;;;;;;4965232;28;19933;-86
2022/10/10 09:19:59;;;;;;;;;;;33.20;26.10;;;;;;4965063;28;19926;-87
2022/10/10 09:22:27;;;;;;;;;;;33.30;25.80;;;;;;4984189;28;19918;-88
2022/10/10 09:25:01;;;;;;;;;;;33.20;25.60;;;;;;4980397;28;19944;-89
2022/10/10 09:27:29;;;;;;;;;;;33.20;25.90;;;;;;4974231;28;19921;-87
2022/10/10 09:29:55;;;;;;;;;;;33.20;26.00;;;;;;4990392;28;20419;-87
2022/10/10 09:32:27;;;;;;;;;;;33.30;26.00;;;;;;4972595;28;19922;-86
2022/10/10 09:35:25;;;;;;;;;;;33.30;26.00;;;;;;4992353;28;19914;-86
2022/10/10 09:38:14;;;;;;;;;;;33.10;25.00;;;;;;4951829;28;19925;-85
2022/10/10 09:40:44;;;;;;;;;;;32.70;25.30;;;;;;4955272;28;19915;-87
2022/10/10 09:43:15;;;;;;;;;;;32.40;25.30;;;;;;4991199;28;20023;-88
2022/10/10 09:45:46;;;;;;;;;;;32.20;25.70;;;;;;4972758;28;19913;-89
2022/10/10 09:48:14;;;;;;;;;;;32.10;26.30;;;;;;4987767;28;20289;-86
2022/10/10 09:50:39;;;;;;;;;;;32.00;26.60;;;;;;4967731;28;20254;-89
2022/10/10 09:53:05;;;;;;;;;;;32.00;26.50;;;;;;4970841;28;19976;-88
2022/10/10 09:55:35;;;;;;;;;;;32.00;26.50;;;;;;4986914;28;20297;-88
2022/10/10 09:58:11;;;;;;;;;;;32.00;26.20;;;;;;4964929;28;19961;-88
2022/10/10 10:00:37;;;;;;;;;;;32.00;26.30;;;;;;4985278;28;19922;-86
2022/10/10 10:03:04;;;;;;;;;;;32.10;26.00;;;;;;4989412;28;19928;-88
2022/10/10 10:05:29;;;;;;;;;;;32.00;25.90;;;;;;4990956;28;19918;-87
2022/10/10 10:07:55;;;;;;;;;;;32.00;25.90;;;;;;4988418;28;19974;-87
2022/10/10 10:10:23;;;;;;;;;;;31.80;25.80;;;;;;4987328;28;19929;-88
2022/10/10 10:12:49;;;;;;;;;;;31.80;26.10;;;;;;4962571;28;19930;-88
2022/10/10 10:15:25;;;;;;;;;;;31.80;26.20;;;;;;4984817;28;19925;-87
2022/10/10 10:18:09;;;;;;;;;;;31.90;26.40;;;;;;4986267;28;19922;-88
2022/10/10 10:20:37;;;;;;;;;;;32.00;26.30;;;;;;4984325;28;19918;-86
2022/10/10 10:23:02;;;;;;;;;;;32.10;26.30;;;;;;4980106;28;19922;-86
2022/10/10 10:25:36;;;;;;;;;;;32.20;25.80;;;;;;4984652;28;19914;-87
2022/10/10 10:28:10;;;;;;;;;;;32.40;26.00;;;;;;4988675;28;19926;-88
2022/10/10 10:30:39;;;;;;;;;;;32.50;25.80;;;;;;4963782;28;19985;-87
2022/10/10 10:33:09;;;;;;;;;;;32.60;25.90;;;;;;4958484;28;20020;-88
2022/10/10 10:35:58;;;;;;;;;;;32.70;25.70;;;;;;4986275;28;19937;-88
2022/10/10 10:38:37;;;;;;;;;;;32.70;25.30;;;;;;4961760;28;20374;-86
2022/10/10 10:41:19;;;;;;;;;;;32.70;25.40;;;;;;4965942;28;19913;-86
2022/10/10 10:44:04;;;;;;;;;;;32.80;25.20;;;;;;4962769;28;19929;-89
2022/10/10 10:46:45;;;;;;;;;;;32.80;25.00;;;;;;4986221;28;19914;-88
2022/10/10 10:49:15;;;;;;;;;;;32.80;25.30;;;;;;4964640;28;19948;-87
2022/10/10 10:52:04;;;;;;;;;;;33.00;25.60;;;;;;4970452;28;19917;-88
2022/10/10 10:54:29;;;;;;;;;;;33.20;25.30;;;;;;4984203;28;20297;-88
2022/10/10 10:57:12;;;;;;;;;;;33.20;25.10;;;;;;4985976;28;19918;-87
2022/10/10 10:59:56;;;;;;;;;;;33.30;25.10;;;;;;4986134;28;20319;-88
2022/10/10 11:02:42;;;;;;;;;;;33.50;25.00;;;;;;4967744;28;19932;-89
2022/10/10 11:05:17;;;;;;;;;;;33.60;24.90;;;;;;4984028;28;19988;-86
2022/10/10 11:07:50;;;;;;;;;;;33.70;24.10;;;;;;4980674;28;19918;-87
2022/10/10 11:10:20;;;;;;;;;;;33.80;24.00;;;;;;4984788;28;19918;-88
2022/10/10 11:12:57;;;;;;;;;;;33.70;23.70;;;;;;4982346;28;19941;-87
2022/10/10 11:15:35;;;;;;;;;;;33.70;23.80;;;;;;4981573;28;19918;-88
2022/10/10 11:18:04;;;;;;;;;;;33.80;23.80;;;;;;4967269;28;20108;-87
2022/10/10 11:20:29;;;;;;;;;;;33.80;23.70;;;;;;4986877;28;20316;-89
2022/10/10 11:23:06;;;;;;;;;;;33.80;23.80;;;;;;4968070;28;19952;-87
2022/10/10 11:25:36;;;;;;;;;;;33.80;23.70;;;;;;4988585;28;20440;-87
2022/10/10 11:28:06;;;;;;;;;;;33.70;23.70;;;;;;4988647;28;19922;-86
2022/10/10 11:30:33;;;;;;;;;;;33.70;23.70;;;;;;4992075;28;20061;-88
2022/10/10 11:33:17;;;;;;;;;;;33.70;23.50;;;;;;4989425;28;19930;-87
2022/10/10 11:35:48;;;;;;;;;;;33.70;23.50;;;;;;4987418;28;19925;-87
2022/10/10 11:38:37;;;;;;;;;;;33.60;23.40;;;;;;4988053;28;19918;-87
2022/10/10 11:41:03;;;;;;;;;;;33.50;23.60;;;;;;4984085;28;19925;-86
2022/10/10 11:43:36;;;;;;;;;;;33.30;23.40;;;;;;4985106;28;20400;-87
2022/10/10 11:46:07;;;;;;;;;;;33.10;23.40;;;;;;4985595;28;19918;-87
2022/10/10 11:48:51;;;;;;;;;;;32.70;23.70;;;;;;4985624;28;19952;-89
2022/10/10 11:51:23;;;;;;;;;;;32.70;24.20;;;;;;4956411;28;19996;-89
2022/10/10 11:53:50;;;;;;;;;;;32.80;24.40;;;;;;4970184;28;19968;-89
2022/10/10 11:56:31;;;;;;;;;;;32.70;24.20;;;;;;4959460;28;19949;-85
2022/10/10 11:59:01;;;;;;;;;;;32.60;24.10;;;;;;4986979;28;20297;-87
2022/10/10 12:01:32;;;;;;;;;;;32.50;24.20;;;;;;4977211;28;19926;-89
2022/10/10 12:03:58;;;;;;;;;;;32.50;23.60;;;;;;4977743;28;20407;-88
2022/10/10 12:06:31;;;;;;;;;;;32.30;23.50;;;;;;4954939;28;19918;-86
2022/10/10 12:09:00;;;;;;;;;;;32.20;23.70;;;;;;4961174;28;19926;-87
2022/10/10 12:11:29;;;;;;;;;;;32.20;24.00;;;;;;4982590;28;19928;-88
2022/10/10 12:13:55;;;;;;;;;;;32.30;24.00;;;;;;4976182;28;20017;-88
2022/10/10 12:16:24;;;;;;;;;;;32.30;24.10;;;;;;4981464;28;20490;-86
2022/10/10 12:18:55;;;;;;;;;;;32.50;24.30;;;;;;4988488;28;19918;-88
2022/10/10 12:21:25;;;;;;;;;;;32.60;23.80;;;;;;4965433;28;19918;-88
2022/10/10 12:24:09;;;;;;;;;;;32.50;24.00;;;;;;4968745;28;19935;-89
2022/10/10 12:26:53;;;;;;;;;;;32.60;24.10;;;;;;4966173;28;20381;-89
2022/10/10 12:29:38;;;;;;;;;;;32.50;24.40;;;;;;4988644;28;19922;-86
2022/10/10 12:32:12;;;;;;;;;;;32.30;24.40;;;;;;4967963;28;20339;-87
2022/10/10 12:34:43;;;;;;;;;;;32.20;24.60;;;;;;4970140;28;19972;-89
2022/10/10 12:37:19;;;;;;;;;;;31.80;24.70;;;;;;4969494;28;19921;-88
2022/10/10 12:40:03;;;;;;;;;;;31.50;24.70;;;;;;4983214;28;20305;-86
2022/10/10 12:42:38;;;;;;;;;;;31.20;24.90;;;;;;4985312;28;19918;-88
2022/10/10 12:45:22;;;;;;;;;;;31.00;25.30;;;;;;4987747;28;19952;-87
2022/10/10 12:47:48;;;;;;;;;;;31.00;25.40;;;;;;4982703;28;20335;-86
2022/10/10 12:50:24;;;;;;;;;;;30.80;25.50;;;;;;4970169;28;19926;-86
2022/10/10 12:52:54;;;;;;;;;;;30.50;25.70;;;;;;4992657;28;19922;-88
2022/10/10 12:55:21;;;;;;;;;;;30.30;26.00;;;;;;4990081;28;19990;-89
2022/10/10 12:57:48;;;;;;;;;;;30.20;26.20;;;;;;4988316;28;19924;-88
2022/10/10 13:00:18;;;;;;;;;;;29.90;26.30;;;;;;4970883;28;19933;-87
2022/10/10 13:02:49;;;;;;;;;;;29.80;26.60;;;;;;4991990;28;19960;-86
2022/10/10 13:05:17;;;;;;;;;;;29.60;26.80;;;;;;4971423;28;19925;-87
2022/10/10 13:07:44;;;;;;;;;;;29.40;26.90;;;;;;4965240;28;19918;-87
2022/10/10 13:10:24;;;;;;;;;;;29.30;27.20;;;;;;4972207;28;19965;-90
2022/10/10 13:13:08;;;;;;;;;;;29.20;26.90;;;;;;4990415;28;20414;-87
2022/10/10 13:15:35;;;;;;;;;;;29.10;26.90;;;;;;4973536;28;20012;-87
2022/10/10 13:18:01;;;;;;;;;;;28.90;27.20;;;;;;4973999;28;19925;-88
2022/10/10 13:20:30;;;;;;;;;;;28.90;27.40;;;;;;4990429;28;19954;-88
2022/10/10 13:22:56;;;;;;;;;;;28.80;27.40;;;;;;4969985;28;20288;-90
2022/10/10 13:25:22;;;;;;;;;;;28.80;27.60;;;;;;4989810;28;19968;-89
2022/10/10 13:27:51;;;;;;;;;;;28.80;27.60;;;;;;4977595;28;19922;-88
2022/10/10 13:30:20;;;;;;;;;;;28.80;27.80;;;;;;4973926;28;19914;-86
2022/10/10 13:32:46;;;;;;;;;;;28.70;28.00;;;;;;4990100;28;19926;-90
2022/10/10 13:35:14;;;;;;;;;;;28.80;28.10;;;;;;4973021;28;19924;-90
2022/10/10 13:37:49;;;;;;;;;;;28.70;28.10;;;;;;4972139;28;19922;-87
2022/10/10 13:40:15;;;;;;;;;;;28.70;28.20;;;;;;4988396;28;20568;-87
2022/10/10 13:42:41;;;;;;;;;;;28.70;28.30;;;;;;4989279;28;20363;-90
2022/10/10 13:45:22;;;;;;;;;;;28.70;28.50;;;;;;4971286;28;20686;-87
2022/10/10 13:47:52;;;;;;;;;;;28.70;28.60;;;;;;4990371;28;20365;-87
2022/10/10 13:50:19;;;;;;;;;;;28.70;28.70;;;;;;4972499;28;19976;-89
2022/10/10 13:52:44;;;;;;;;;;;28.70;28.80;;;;;;4991658;28;20400;-87
2022/10/10 13:55:19;;;;;;;;;;;28.70;28.80;;;;;;4974163;28;19953;-86
2022/10/10 13:57:46;;;;;;;;;;;28.60;28.90;;;;;;4981291;28;19962;-86
2022/10/10 14:00:15;;;;;;;;;;;28.60;28.70;;;;;;4973604;28;20367;-88
2022/10/10 14:02:41;;;;;;;;;;;28.50;28.30;;;;;;4972109;28;19922;-86
2022/10/10 14:05:08;;;;;;;;;;;28.50;28.30;;;;;;4989993;28;19913;-87
2022/10/10 14:07:36;;;;;;;;;;;28.50;28.20;;;;;;4988321;28;19945;-90
2022/10/10 14:10:06;;;;;;;;;;;28.40;28.10;;;;;;4972883;28;20470;-88
2022/10/10 14:12:41;;;;;;;;;;;28.30;28.10;;;;;;4993952;28;19964;-87
2022/10/10 14:15:26;;;;;;;;;;;28.20;28.00;;;;;;4993227;28;20067;-90
2022/10/10 14:17:52;;;;;;;;;;;28.10;28.10;;;;;;4969646;28;19928;-86
2022/10/10 14:20:18;;;;;;;;;;;28.10;28.10;;;;;;4987858;28;19918;-88
2022/10/10 14:22:43;;;;;;;;;;;28.10;27.90;;;;;;4988947;28;19973;-87
2022/10/10 14:25:09;;;;;;;;;;;28.10;27.90;;;;;;4996584;28;20356;-88
2022/10/10 14:27:34;;;;;;;;;;;28.00;28.00;;;;;;4981459;28;20349;-86